createdAt,value
2023-02-02T00:00:00.387Z,92
2023-02-02T00:05:00.392Z,92
2023-02-02T00:10:00.396Z,92
2023-02-02T00:15:00.401Z,92
2023-02-02T00:20:00.410Z,92
2023-02-02T00:25:00.386Z,92
2023-02-02T00:30:00.402Z,91
2023-02-02T00:35:00.400Z,91
2023-02-02T00:40:00.394Z,90
2023-02-02T00:45:00.412Z,91
2023-02-02T00:50:00.396Z,91
2023-02-02T00:55:00.408Z,91
2023-02-02T01:00:00.387Z,91
2023-02-02T01:05:00.408Z,91
2023-02-02T01:10:00.411Z,91
2023-02-02T01:15:00.398Z,91
2023-02-02T01:20:00.399Z,91
2023-02-02T01:25:00.400Z,90
2023-02-02T01:30:00.429Z,91
2023-02-02T01:35:00.400Z,90
2023-02-02T01:40:00.396Z,90
2023-02-02T01:45:00.396Z,90
2023-02-02T01:50:00.404Z,90
2023-02-02T01:55:00.410Z,90
2023-02-02T02:00:00.394Z,89
2023-02-02T02:05:00.392Z,89
2023-02-02T02:10:00.401Z,88
2023-02-02T02:15:00.406Z,88
2023-02-02T02:20:00.434Z,89
2023-02-02T02:25:00.405Z,89
2023-02-02T02:30:00.399Z,89
2023-02-02T02:35:00.404Z,89
2023-02-02T02:40:00.396Z,89
2023-02-02T02:45:00.391Z,89
2023-02-02T02:50:00.422Z,91
2023-02-02T02:55:00.417Z,91
2023-02-02T03:00:00.415Z,92
2023-02-02T03:05:00.417Z,92
2023-02-02T03:10:00.397Z,92
2023-02-02T03:15:00.410Z,93
2023-02-02T03:20:00.430Z,93
2023-02-02T03:25:00.417Z,93
2023-02-02T03:30:02.540Z,94
2023-02-02T03:35:00.417Z,94
2023-02-02T03:40:00.413Z,94
2023-02-02T03:45:00.417Z,94
2023-02-02T03:50:00.403Z,95
2023-02-02T03:55:00.410Z,94
2023-02-02T04:00:00.407Z,94
2023-02-02T04:05:00.407Z,94
2023-02-02T04:10:00.445Z,94
2023-02-02T04:15:00.405Z,94
2023-02-02T04:20:00.405Z,94
2023-02-02T04:25:00.412Z,94
2023-02-02T04:30:00.426Z,94
2023-02-02T04:35:00.409Z,94
2023-02-02T04:40:00.420Z,94
2023-02-02T04:45:00.413Z,94
2023-02-02T04:50:00.402Z,93
2023-02-02T04:55:00.434Z,93
2023-02-02T05:00:00.409Z,93
2023-02-02T05:05:00.405Z,92
2023-02-02T05:10:00.427Z,92
2023-02-02T05:15:00.403Z,92
2023-02-02T05:20:00.395Z,92
2023-02-02T05:25:00.406Z,93
2023-02-02T05:30:00.395Z,93
2023-02-02T05:35:00.415Z,93
2023-02-02T05:40:00.407Z,92
2023-02-02T05:45:00.399Z,92
2023-02-02T05:50:00.398Z,92
2023-02-02T05:55:00.398Z,93
2023-02-02T06:00:00.427Z,93
2023-02-02T06:05:00.414Z,93
2023-02-02T06:10:00.419Z,93
2023-02-02T06:15:00.399Z,93
2023-02-02T06:20:00.411Z,92
2023-02-02T06:25:00.401Z,93
2023-02-02T06:30:00.399Z,93
2023-02-02T06:35:00.419Z,93
2023-02-02T06:40:00.390Z,93
2023-02-02T06:45:00.417Z,93
2023-02-02T06:50:00.398Z,93
2023-02-02T06:55:00.408Z,93
2023-02-02T07:00:00.433Z,93
2023-02-02T07:05:00.390Z,94
2023-02-02T07:10:00.402Z,94
2023-02-02T07:15:00.416Z,94
2023-02-02T07:20:00.431Z,94
2023-02-02T07:25:00.415Z,94
2023-02-02T07:30:00.434Z,94
2023-02-02T07:35:00.398Z,94
2023-02-02T07:40:00.442Z,93
2023-02-02T07:45:00.433Z,94
2023-02-02T07:50:00.420Z,93
2023-02-02T07:55:13.982Z,93
2023-02-02T08:00:00.469Z,93
2023-02-02T08:05:00.413Z,94
2023-02-02T08:10:00.431Z,94
2023-02-02T08:15:00.417Z,94
2023-02-02T08:20:00.407Z,94
2023-02-02T08:25:00.417Z,94
2023-02-02T08:30:00.420Z,94
2023-02-02T08:35:00.409Z,94
2023-02-02T08:40:00.580Z,94
2023-02-02T08:46:03.353Z,94
2023-02-02T08:50:00.409Z,94
2023-02-02T08:55:00.439Z,94
2023-02-02T09:00:00.413Z,94
2023-02-02T09:05:00.408Z,94
2023-02-02T09:10:00.396Z,93
2023-02-02T09:15:00.408Z,93
2023-02-02T09:20:00.427Z,92
2023-02-02T09:25:00.403Z,93
2023-02-02T09:30:00.398Z,93
2023-02-02T09:35:00.405Z,93
2023-02-02T09:40:00.462Z,93
2023-02-02T09:45:00.448Z,93
2023-02-02T09:50:00.399Z,93
2023-02-02T09:55:00.436Z,93
2023-02-02T10:00:00.431Z,93
2023-02-02T10:05:00.419Z,93
2023-02-02T10:10:00.411Z,93
2023-02-02T10:15:00.843Z,93
2023-02-02T10:20:00.492Z,93
2023-02-02T10:25:01.142Z,93
2023-02-02T10:30:00.425Z,93
2023-02-02T10:35:12.564Z,93
2023-02-02T10:40:00.444Z,93
2023-02-02T10:45:00.421Z,93
2023-02-02T10:50:00.413Z,93
2023-02-02T10:55:02.809Z,93
2023-02-02T11:00:00.414Z,93
2023-02-02T11:05:00.433Z,93
2023-02-02T11:10:00.413Z,93
2023-02-02T11:15:00.440Z,93
2023-02-02T11:20:00.490Z,93
2023-02-02T11:25:00.418Z,93
2023-02-02T11:30:00.419Z,93
2023-02-02T11:35:00.412Z,93
2023-02-02T11:40:00.419Z,93
2023-02-02T11:45:00.428Z,93
2023-02-02T11:50:00.452Z,93
2023-02-02T11:55:00.395Z,93
2023-02-02T12:00:00.424Z,93
2023-02-02T12:05:00.446Z,93
2023-02-02T12:10:00.428Z,93
2023-02-02T12:15:00.434Z,93
2023-02-02T12:20:00.428Z,94
2023-02-02T12:25:00.414Z,94
2023-02-02T12:30:00.497Z,94
2023-02-02T12:35:01.135Z,94
2023-02-02T12:40:00.474Z,94
2023-02-02T12:45:00.456Z,94
2023-02-02T12:50:00.559Z,93
2023-02-02T12:55:00.435Z,93
2023-02-02T13:00:00.437Z,92
2023-02-02T13:05:00.415Z,92
2023-02-02T13:10:00.421Z,92
2023-02-02T13:15:00.406Z,92
2023-02-02T13:20:00.395Z,92
2023-02-02T13:25:01.308Z,93
2023-02-02T13:30:00.415Z,93
2023-02-02T13:35:00.412Z,93
2023-02-02T13:40:00.392Z,93
2023-02-02T13:45:00.396Z,93
2023-02-02T13:50:00.398Z,94
2023-02-02T13:55:00.414Z,94
2023-02-02T14:00:00.384Z,94
2023-02-02T14:05:00.427Z,95
2023-02-02T14:10:00.405Z,95
2023-02-02T14:15:00.412Z,95
2023-02-02T14:20:00.407Z,95
2023-02-02T14:25:00.468Z,95
2023-02-02T14:30:00.379Z,95
2023-02-02T14:35:00.431Z,95
2023-02-02T14:40:00.391Z,95
2023-02-02T14:45:00.393Z,95
2023-02-02T14:50:00.373Z,95
2023-02-02T14:55:00.383Z,95
2023-02-02T15:00:01.589Z,95
2023-02-02T15:05:00.385Z,95
2023-02-02T15:10:00.382Z,95
2023-02-02T15:15:00.373Z,95
2023-02-02T15:20:00.418Z,96
2023-02-02T15:25:00.395Z,96
2023-02-02T15:30:00.395Z,96
2023-02-02T15:35:00.392Z,96
2023-02-02T15:40:00.413Z,96
2023-02-02T15:45:00.397Z,96
2023-02-02T15:50:00.395Z,96
2023-02-02T15:55:00.452Z,96
2023-02-02T16:00:00.601Z,96
2023-02-02T16:05:00.399Z,96
2023-02-02T16:10:00.469Z,96
2023-02-02T16:15:00.415Z,96
2023-02-02T16:20:00.410Z,96
2023-02-02T16:25:00.382Z,96
2023-02-02T16:30:00.464Z,96
2023-02-02T16:35:00.391Z,96
2023-02-02T16:40:00.416Z,96
2023-02-02T16:45:00.395Z,96
2023-02-02T16:50:00.410Z,96
2023-02-02T16:55:00.413Z,96
2023-02-02T17:00:00.403Z,96
2023-02-02T17:05:00.380Z,96
2023-02-02T17:10:00.400Z,95
2023-02-02T17:15:00.406Z,95
2023-02-02T17:20:00.402Z,94
2023-02-02T17:25:00.411Z,94
2023-02-02T17:30:00.405Z,94
2023-02-02T17:35:00.403Z,94
2023-02-02T17:40:00.421Z,94
2023-02-02T17:45:00.418Z,93
2023-02-02T17:50:00.388Z,93
2023-02-02T17:55:00.419Z,94
2023-02-02T18:00:00.376Z,94
2023-02-02T18:05:00.403Z,94
2023-02-02T18:10:00.383Z,93
2023-02-02T18:15:00.435Z,93
2023-02-02T18:20:00.395Z,93
2023-02-02T18:25:00.403Z,94
2023-02-02T18:30:00.524Z,94
2023-02-02T18:35:00.394Z,94
2023-02-02T18:40:00.406Z,94
2023-02-02T18:45:00.388Z,94
2023-02-02T18:50:00.397Z,93
2023-02-02T18:55:00.404Z,93
2023-02-02T19:00:00.378Z,93
2023-02-02T19:05:00.386Z,93
2023-02-02T19:10:00.386Z,94
2023-02-02T19:15:00.413Z,94
2023-02-02T19:20:00.381Z,94
2023-02-02T19:25:00.404Z,93
2023-02-02T19:30:00.465Z,93
2023-02-02T19:35:00.386Z,93
2023-02-02T19:45:00.407Z,93
2023-02-02T19:50:00.435Z,93
2023-02-02T19:55:00.391Z,93
2023-02-02T20:00:00.365Z,93
2023-02-02T20:05:00.366Z,93
2023-02-02T20:10:00.368Z,93
2023-02-02T20:15:00.369Z,93
2023-02-02T20:20:00.369Z,93
2023-02-02T20:25:00.363Z,93
2023-02-02T20:30:00.359Z,93
2023-02-02T20:35:00.363Z,92
2023-02-02T20:40:00.361Z,93
2023-02-02T20:45:00.366Z,93
2023-02-02T20:50:00.389Z,93
2023-02-02T20:55:00.359Z,93
2023-02-02T21:00:00.381Z,92
2023-02-02T21:05:00.373Z,93
2023-02-02T21:10:00.362Z,92
2023-02-02T21:15:00.364Z,93
2023-02-02T21:20:00.370Z,93
2023-02-02T21:25:00.374Z,93
2023-02-02T21:30:00.356Z,93
2023-02-02T21:35:00.372Z,92
2023-02-02T21:40:00.369Z,92
2023-02-02T21:45:00.354Z,92
2023-02-02T21:50:00.380Z,92
2023-02-02T21:55:00.363Z,92
2023-02-02T22:00:00.355Z,92
2023-02-02T22:05:00.372Z,92
2023-02-02T22:10:00.358Z,92
2023-02-02T22:15:00.354Z,92
2023-02-02T22:20:00.365Z,92
2023-02-02T22:25:00.377Z,92
2023-02-02T22:30:00.420Z,91
2023-02-02T22:35:00.372Z,91
2023-02-02T22:40:00.942Z,91
2023-02-02T22:45:00.365Z,91
2023-02-02T22:50:00.366Z,91
2023-02-02T22:55:00.447Z,91
2023-02-02T23:00:00.354Z,90
2023-02-02T23:05:00.351Z,90
2023-02-02T23:10:00.355Z,90
2023-02-02T23:15:00.358Z,90
2023-02-02T23:20:00.361Z,91
2023-02-02T23:25:00.358Z,91
2023-02-02T23:30:00.373Z,91
2023-02-02T23:35:00.407Z,91
2023-02-02T23:40:00.404Z,91
2023-02-02T23:45:00.374Z,91
2023-02-02T23:50:00.354Z,92
2023-02-02T23:55:00.422Z,92
